Ellen Najad 460 — SMWO — position and weather

sailwx.info

Track history (hours):
 
Tides and Currents Weather Stations Pressure Air Temp Water Temp Dewpoint Dewpoint Depression Visibility Wind Speed Wind Dir Waves Ship Positions

Ellen Najad 460

Last reported at 2017-Nov-19 14:52 UTC. Time now 2017-Nov-20 13:45 UTC.
Position N 27°58' W 015°20'.

Length 14 m.

Type: Sailing vessel. MMSI: 265574250.

Date/timePositionNaut miles runAvg speedWind from/ knotsBaromVisibWave heightAir tempDewpointWater temp
2017-Nov-19 14:52N 27°58' W 015°20'2 5.7
2017-Nov-19 14:30N 28°00' W 015°21'2 4.8
2017-Nov-19 14:00N 28°03' W 015°22'3 5.1
2017-Nov-19 13:30N 28°05' W 015°23'2 4.3
2017-Nov-19 12:59N 28°07' W 015°24'1 1.5
2017-Nov-19 12:29N 28°06' W 015°23'1 1.8
2017-Nov-19 11:59N 28°07' W 015°24'2 2.4
2017-Nov-19 11:17N 28°08' W 015°26'0 0.0
2017-Nov-19 10:59N 28°08' W 015°26'0 0.0
2017-Nov-19 10:29N 28°08' W 015°26'0 0.0
2017-Nov-19 09:35N 28°08' W 015°26'0 0.0
2017-Nov-19 08:20N 28°08' W 015°26'0 0.0
2017-Nov-19 06:53N 28°08' W 015°26'0 0.0
2017-Nov-19 06:23N 28°08' W 015°26'0 0.0
2017-Nov-19 05:56N 28°08' W 015°26'0 0.0
2017-Nov-19 05:23N 28°08' W 015°26'0 0.0
2017-Nov-19 04:53N 28°08' W 015°26'0 0.0
2017-Nov-19 04:23N 28°08' W 015°26'0 0.0
2017-Nov-19 03:56N 28°08' W 015°26'0 0.0
2017-Nov-19 03:29N 28°08' W 015°26'0 0.0
2017-Nov-19 02:59N 28°08' W 015°26'0 0.0
2017-Nov-19 02:29N 28°08' W 015°26'0 0.0
2017-Nov-19 01:14N 28°08' W 015°26'0 0.0
2017-Nov-19 00:59N 28°08' W 015°26'0 0.0
2017-Nov-18 20:17N 28°08' W 015°26'0 0.0
2017-Nov-18 19:47N 28°08' W 015°26'0 0.0
2017-Nov-18 19:23N 28°08' W 015°26'0 0.0
2017-Nov-18 17:23N 28°08' W 015°26'0 0.0
2017-Nov-18 14:23N 28°08' W 015°26'0 0.0
2017-Nov-18 13:11N 28°08' W 015°26'0 0.0
2017-Nov-18 12:47N 28°08' W 015°26'0 0.0
2017-Nov-18 12:30N 28°08' W 015°26'0 0.0
2017-Nov-18 11:56N 28°08' W 015°26'0 0.0
2017-Nov-18 11:15N 28°08' W 015°26'0 0.0
2017-Nov-18 10:47N 28°08' W 015°26'0 0.0
2017-Nov-18 10:30N 28°08' W 015°26'0 0.0
2017-Nov-18 09:51N 28°08' W 015°26'0 0.0
2017-Nov-18 09:18N 28°08' W 015°26'0 0.0
2017-Nov-18 08:48N 28°08' W 015°26'0 0.0
2017-Nov-18 08:21N 28°08' W 015°26'0 0.0
2017-Nov-18 07:51N 28°08' W 015°26'0 0.0
2017-Nov-18 07:24N 28°08' W 015°26'0 0.0
2017-Nov-18 06:51N 28°08' W 015°26'0 0.0
2017-Nov-18 06:24N 28°08' W 015°26'0 0.0
2017-Nov-18 05:51N 28°08' W 015°26'0 0.0
2017-Nov-18 05:12N 28°08' W 015°26'0 0.0
2017-Nov-18 04:57N 28°08' W 015°26'0 0.0
2017-Nov-18 04:27N 28°08' W 015°26'0 0.0
2017-Nov-18 03:57N 28°08' W 015°26'0 0.0
2017-Nov-18 03:27N 28°08' W 015°26'0 0.0
2017-Nov-18 02:57N 28°08' W 015°26'0 0.0
2017-Nov-18 02:30N 28°08' W 015°26'0 0.0
2017-Nov-18 02:00N 28°08' W 015°26'0 0.0
2017-Nov-18 01:27N 28°08' W 015°26'0 0.0
2017-Nov-18 01:00N 28°08' W 015°26'0 0.0
2017-Nov-18 00:27N 28°08' W 015°26'0 0.0
2017-Nov-18 00:00N 28°08' W 015°26'0 0.0
2017-Nov-17 23:27N 28°08' W 015°26'0 0.0
2017-Nov-17 22:48N 28°08' W 015°26'0 0.0
2017-Nov-17 22:30N 28°08' W 015°26'0 0.0
2017-Nov-17 22:00N 28°08' W 015°26'0 0.0
2017-Nov-17 21:30N 28°08' W 015°26'0 0.0
2017-Nov-17 20:21N 28°08' W 015°26'0 0.0
2017-Nov-17 19:51N 28°08' W 015°26'0 0.0
2017-Nov-17 19:24N 28°08' W 015°26'0 0.0
2017-Nov-17 18:54N 28°08' W 015°26'0 0.0
2017-Nov-17 18:24N 28°08' W 015°26'0 0.0
2017-Nov-17 17:51N 28°08' W 015°26'0 0.0
2017-Nov-17 17:24N 28°08' W 015°26'0 0.0
2017-Nov-17 16:57N 28°08' W 015°26'0 0.0
2017-Nov-17 16:27N 28°08' W 015°26'0 0.0
2017-Nov-17 15:57N 28°08' W 015°26'0 0.0
2017-Nov-17 15:27N 28°08' W 015°26'0 0.0
2017-Nov-17 14:57N 28°08' W 015°26'0 0.0
2017-Nov-17 14:30N 28°08' W 015°26'0 0.0
2017-Nov-17 14:00N 28°08' W 015°26'0 0.0
2017-Nov-17 13:27N 28°08' W 015°26'0 0.0
2017-Nov-17 13:00N 28°08' W 015°26'0 0.0
2017-Nov-17 12:30N 28°08' W 015°26'0 0.0
2017-Nov-17 12:00N 28°08' W 015°26'0 0.0
2017-Nov-17 11:30N 28°08' W 015°26'0 0.0
2017-Nov-17 11:00N 28°08' W 015°26'0 0.0
2017-Nov-17 10:30N 28°08' W 015°26'0 0.0
2017-Nov-17 09:51N 28°08' W 015°26'0 0.0
2017-Nov-17 09:30N 28°08' W 015°26'0 0.0
2017-Nov-17 08:51N 28°08' W 015°26'0 0.0
2017-Nov-17 08:21N 28°08' W 015°26'0 0.0
2017-Nov-17 07:48N 28°08' W 015°26'0 0.0
2017-Nov-17 07:24N 28°08' W 015°26'0 0.0
2017-Nov-17 06:54N 28°08' W 015°26'0 0.0
2017-Nov-17 06:24N 28°08' W 015°26'0 0.0
2017-Nov-17 05:54N 28°08' W 015°26'0 0.0
2017-Nov-17 05:24N 28°08' W 015°26'0 0.0
2017-Nov-17 04:54N 28°08' W 015°26'0 0.0
2017-Nov-17 04:27N 28°08' W 015°26'0 0.0
2017-Nov-17 03:57N 28°08' W 015°26'0 0.0
2017-Nov-17 03:27N 28°08' W 015°26'0 0.0
2017-Nov-17 02:57N 28°08' W 015°26'0 0.0
2017-Nov-17 02:27N 28°08' W 015°26'0 0.0
2017-Nov-17 02:00N 28°08' W 015°26'0 0.0
2017-Nov-17 01:27N 28°08' W 015°26'0 0.0
2017-Nov-17 01:00N 28°08' W 015°26'0 0.0
2017-Nov-17 00:30N 28°08' W 015°26'0 0.0
2017-Nov-17 00:00N 28°08' W 015°26'0 0.0
2017-Nov-16 23:30N 28°08' W 015°26'0 0.0
2017-Nov-16 23:00N 28°08' W 015°26'0 0.0
2017-Nov-16 22:30N 28°08' W 015°26'0 0.0
2017-Nov-16 21:45N 28°08' W 015°26'0 0.0
2017-Nov-16 21:30N 28°08' W 015°26'0 0.0
2017-Nov-16 21:00N 28°08' W 015°26'0 0.0
2017-Nov-16 20:30N 28°08' W 015°26'0 0.0
2017-Nov-16 19:53N 28°08' W 015°26'0 0.0
2017-Nov-16 19:30N 28°08' W 015°26'0 0.0
2017-Nov-16 19:00N 28°08' W 015°26'0 0.0
2017-Nov-16 18:15N 28°08' W 015°26'0 0.0
2017-Nov-16 17:45N 28°08' W 015°26'0 0.0
2017-Nov-16 17:30N 28°08' W 015°26'0 0.0
2017-Nov-16 17:00N 28°08' W 015°26'0 0.0
2017-Nov-16 16:18N 28°08' W 015°26'0 0.0
2017-Nov-16 15:51N 28°08' W 015°26'0 0.0
2017-Nov-16 15:21N 28°08' W 015°26'0 0.0
2017-Nov-16 14:54N 28°08' W 015°26'0 0.0
2017-Nov-16 14:24N 28°08' W 015°26'0 0.0
2017-Nov-16 13:54N 28°08' W 015°26'0 0.0
2017-Nov-16 13:24N 28°08' W 015°26'0 0.0
2017-Nov-16 12:57N 28°08' W 015°26'0 0.0
2017-Nov-16 12:27N 28°08' W 015°26'0 0.0
2017-Nov-16 11:57N 28°08' W 015°26'0 0.0
2017-Nov-16 11:27N 28°08' W 015°26'0 0.0
2017-Nov-16 10:57N 28°08' W 015°26'0 0.0
2017-Nov-16 10:30N 28°08' W 015°26'0 0.0
2017-Nov-16 10:00N 28°08' W 015°26'0 0.0
2017-Nov-16 09:30N 28°08' W 015°26'0 0.0
2017-Nov-16 09:00N 28°08' W 015°26'0 0.0
2017-Nov-16 08:30N 28°08' W 015°26'0 0.0
2017-Nov-16 08:00N 28°08' W 015°26'0 0.0
2017-Nov-16 07:30N 28°08' W 015°26'0 0.0
2017-Nov-16 07:00N 28°08' W 015°26'0 0.0
2017-Nov-16 06:30N 28°08' W 015°26'0 0.0
2017-Nov-16 06:00N 28°08' W 015°26'0 0.0
2017-Nov-16 05:30N 28°08' W 015°26'0 0.0
2017-Nov-16 05:00N 28°08' W 015°26'0 0.0
2017-Nov-16 04:21N 28°08' W 015°26'0 0.0
2017-Nov-16 03:48N 28°08' W 015°26'0 0.0
2017-Nov-16 03:21N 28°08' W 015°26'0 0.0
2017-Nov-16 02:54N 28°08' W 015°26'0 0.0
2017-Nov-16 02:24N 28°08' W 015°26'0 0.0
2017-Nov-16 01:54N 28°08' W 015°26'0 0.0
2017-Nov-16 01:27N 28°08' W 015°26'0 0.0
2017-Nov-16 00:54N 28°08' W 015°26'0 0.0
2017-Nov-16 00:27N 28°08' W 015°26'0 0.0
2017-Nov-15 23:57N 28°08' W 015°26'0 0.0
2017-Nov-15 23:27N 28°08' W 015°26'0 0.0
2017-Nov-15 22:57N 28°08' W 015°26'0 0.0
2017-Nov-15 22:27N 28°08' W 015°26'0 0.0
2017-Nov-15 21:57N 28°08' W 015°26'0 0.0
2017-Nov-15 21:30N 28°08' W 015°26'0 0.0
2017-Nov-15 20:57N 28°08' W 015°26'0 0.0
2017-Nov-15 20:30N 28°08' W 015°26'0 0.0
2017-Nov-15 20:00N 28°08' W 015°26'0 0.0
2017-Nov-15 19:30N 28°08' W 015°26'0 0.0
2017-Nov-15 19:00N 28°08' W 015°26'0 0.0
2017-Nov-15 18:30N 28°08' W 015°26'0 0.0
2017-Nov-15 18:00N 28°08' W 015°26'0 0.0
2017-Nov-15 17:30N 28°08' W 015°26'0 0.0
2017-Nov-15 16:51N 28°08' W 015°26'0 0.0
2017-Nov-15 16:30N 28°08' W 015°26'0 0.0
2017-Nov-15 15:51N 28°08' W 015°26'0 0.0
2017-Nov-15 15:21N 28°08' W 015°26'0 0.0
2017-Nov-15 14:51N 28°08' W 015°26'0 0.0
2017-Nov-15 14:24N 28°08' W 015°26'0 0.0
2017-Nov-15 13:54N 28°08' W 015°26'0 0.0
2017-Nov-15 13:24N 28°08' W 015°26'0 0.0
2017-Nov-15 12:54N 28°08' W 015°26'0 0.0
2017-Nov-15 12:24N 28°08' W 015°26'0 0.0
2017-Nov-15 11:57N 28°08' W 015°26'0 0.0
2017-Nov-15 11:27N 28°08' W 015°26'0 0.0
2017-Nov-15 10:57N 28°08' W 015°26'0 0.0
2017-Nov-15 10:27N 28°08' W 015°26'0 0.0
2017-Nov-15 09:57N 28°08' W 015°26'0 0.0
2017-Nov-15 09:15N 28°08' W 015°26'0 0.0
2017-Nov-15 09:00N 28°08' W 015°26'0 0.0
2017-Nov-15 08:30N 28°08' W 015°26'0 0.0
2017-Nov-15 07:57N 28°08' W 015°26'0 0.0
2017-Nov-15 07:30N 28°08' W 015°26'0 0.0
2017-Nov-15 07:00N 28°08' W 015°26'0 0.0
2017-Nov-15 06:30N 28°08' W 015°26'0 0.0
2017-Nov-15 06:00N 28°08' W 015°26'0 0.0
2017-Nov-15 05:30N 28°08' W 015°26'0 0.0
2017-Nov-15 05:00N 28°08' W 015°26'0 0.0
2017-Nov-15 04:30N 28°08' W 015°26'0 0.0
2017-Nov-15 04:00N 28°08' W 015°26'0 0.0
2017-Nov-15 03:18N 28°08' W 015°26'0 0.0
2017-Nov-15 02:51N 28°08' W 015°26'0 0.0
2017-Nov-15 02:24N 28°08' W 015°26'0 0.0
2017-Nov-15 01:54N 28°08' W 015°26'0 0.0
2017-Nov-15 01:24N 28°08' W 015°26'0 0.0
2017-Nov-15 00:54N 28°08' W 015°26'0 0.0
2017-Nov-15 00:24N 28°08' W 015°26'0 0.0
2017-Nov-14 23:57N 28°08' W 015°26'0 0.0
2017-Nov-14 23:27N 28°08' W 015°26'0 0.0
2017-Nov-14 22:57N 28°08' W 015°26'0 0.0
2017-Nov-14 22:24N 28°08' W 015°26'0 0.0
2017-Nov-14 21:57N 28°08' W 015°26'0 0.0
2017-Nov-14 21:30N 28°08' W 015°26'0 0.0
2017-Nov-14 21:00N 28°08' W 015°26'0 0.0
2017-Nov-14 20:30N 28°08' W 015°26'0 0.0
2017-Nov-14 20:00N 28°08' W 015°26'0 0.0
2017-Nov-14 19:30N 28°08' W 015°26'0 0.0
2017-Nov-14 19:00N 28°08' W 015°26'0 0.0
2017-Nov-14 18:27N 28°08' W 015°26'0 0.0
2017-Nov-14 18:00N 28°08' W 015°26'0 0.0
2017-Nov-14 17:30N 28°08' W 015°26'0 0.0
2017-Nov-14 17:00N 28°08' W 015°26'0 0.0
2017-Nov-14 16:30N 28°08' W 015°26'0 0.0
2017-Nov-14 15:51N 28°08' W 015°26'0 0.0
2017-Nov-14 15:30N 28°08' W 015°26'0 0.0
2017-Nov-14 14:52N 28°08' W 015°26'0 0.0
2017-Nov-14 14:22N 28°08' W 015°26'0 0.0
2017-Nov-14 13:55N 28°08' W 015°26'0 0.0
2017-Nov-14 13:24N 28°08' W 015°26'0 0.0
2017-Nov-14 12:55N 28°08' W 015°26'0 0.0
2017-Nov-14 12:25N 28°08' W 015°26'0 0.0
2017-Nov-14 11:43N 28°08' W 015°26'0 0.0
2017-Nov-14 11:28N 28°08' W 015°26'0 0.0
2017-Nov-14 10:55N 28°08' W 015°26'0 0.0
2017-Nov-14 10:28N 28°08' W 015°26'0 0.0
2017-Nov-14 09:58N 28°08' W 015°26'0 0.0
2017-Nov-14 09:25N 28°08' W 015°26'0 0.0
2017-Nov-14 08:58N 28°08' W 015°26'0 0.0
2017-Nov-14 08:28N 28°08' W 015°26'0 0.0
2017-Nov-14 07:58N 28°08' W 015°26'0 0.0
2017-Nov-14 07:16N 28°08' W 015°26'0 0.0
2017-Nov-14 06:58N 28°08' W 015°26'0 0.0
2017-Nov-14 06:13N 28°08' W 015°26'0 0.0
2017-Nov-14 05:58N 28°08' W 015°26'0 0.0
2017-Nov-14 05:19N 28°08' W 015°26'0 0.0
2017-Nov-14 04:52N 28°08' W 015°26'0 0.0
2017-Nov-14 04:19N 28°08' W 015°26'0 0.0
2017-Nov-14 03:52N 28°08' W 015°26'0 0.0
2017-Nov-14 03:19N 28°08' W 015°26'0 0.0
2017-Nov-14 02:46N 28°08' W 015°26'0 0.0
2017-Nov-14 02:22N 28°08' W 015°26'0 0.0
2017-Nov-14 01:49N 28°08' W 015°26'0 0.0
2017-Nov-14 01:25N 28°08' W 015°26'0 0.0
2017-Nov-14 00:55N 28°08' W 015°26'0 0.0
2017-Nov-14 00:22N 28°08' W 015°26'0 0.0
2017-Nov-13 23:52N 28°08' W 015°26'0 0.0
2017-Nov-13 23:10N 28°08' W 015°26'0 0.0
2017-Nov-13 22:58N 28°08' W 015°26'0 0.0
2017-Nov-13 22:28N 28°08' W 015°26'0 0.0
2017-Nov-13 21:58N 28°08' W 015°26'0 0.0
2017-Nov-12 20:25N 28°08' W 015°26'0 0.0
2017-Nov-12 17:16N 28°08' W 015°26'0 0.0
2017-Nov-12 16:34N 28°08' W 015°26'0 0.0
2017-Nov-12 16:04N 28°08' W 015°26'0 0.0
2017-Nov-12 15:49N 28°08' W 015°26'0 0.0
2017-Nov-12 15:22N 28°08' W 015°26'0 0.0
2017-Nov-12 14:52N 28°08' W 015°26'0 0.0
2017-Nov-12 14:22N 28°08' W 015°26'0 0.0
2017-Nov-12 13:52N 28°08' W 015°26'0 0.0
2017-Nov-12 13:22N 28°08' W 015°26'0 0.0
2017-Nov-12 12:40N 28°08' W 015°26'0 0.0
2017-Nov-12 12:25N 28°08' W 015°26'0 0.0
2017-Nov-12 11:55N 28°08' W 015°26'0 0.0
2017-Nov-12 11:25N 28°08' W 015°26'0 0.0
2017-Nov-12 10:55N 28°08' W 015°26'0 0.0
2017-Nov-12 10:22N 28°08' W 015°26'0 0.0
2017-Nov-12 08:40N 28°08' W 015°26'0 0.0
2017-Nov-12 08:28N 28°08' W 015°26'0 0.0
2017-Nov-12 07:40N 28°08' W 015°26'0 0.0
2017-Nov-12 07:28N 28°08' W 015°26'0 0.0
2017-Nov-12 06:58N 28°08' W 015°26'0 0.0
2017-Nov-12 06:01N 28°08' W 015°26'0 0.0
2017-Nov-12 05:43N 28°08' W 015°26'0 0.0
2017-Nov-12 05:19N 28°08' W 015°26'0 0.0
2017-Nov-12 04:49N 28°08' W 015°26'0 0.0
2017-Nov-12 04:19N 28°08' W 015°26'0 0.0
2017-Nov-12 02:31N 28°08' W 015°26'0 0.0
2017-Nov-12 02:19N 28°08' W 015°26'0 0.0
2017-Nov-12 00:07N 28°08' W 015°26'0 0.0
2017-Nov-11 23:55N 28°08' W 015°26'0 0.0
2017-Nov-11 23:25N 28°08' W 015°26'0 0.0
2017-Nov-11 22:55N 28°08' W 015°26'0 0.0
2017-Nov-11 22:25N 28°08' W 015°26'0 0.0
2017-Nov-11 18:58N 28°08' W 015°26'0 0.0
2017-Nov-11 18:16N 28°08' W 015°26'0 0.0
2017-Nov-11 17:43N 28°08' W 015°26'0 0.0
2017-Nov-11 17:28N 28°08' W 015°26'0 0.0
2017-Nov-11 16:49N 28°08' W 015°26'0 0.0
2017-Nov-11 16:19N 28°08' W 015°26'0 0.0
2017-Nov-11 15:58N 28°08' W 015°26'0 0.0
2017-Nov-11 15:19N 28°08' W 015°26'0 0.0
2017-Nov-11 14:49N 28°08' W 015°26'0 0.0
2017-Nov-11 14:22N 28°08' W 015°26'0 0.0
2017-Nov-11 13:46N 28°08' W 015°26'0 0.0
2017-Nov-11 13:19N 28°08' W 015°26'0 0.0
2017-Nov-11 12:49N 28°08' W 015°26'0 0.0
2017-Nov-11 12:22N 28°08' W 015°26'0 0.0
2017-Nov-11 11:52N 28°08' W 015°26'0 0.0
2017-Nov-11 11:10N 28°08' W 015°26'0 0.0
2017-Nov-11 10:52N 28°08' W 015°26'0 0.0
2017-Nov-11 10:25N 28°08' W 015°26'0 0.0
2017-Nov-11 08:58N 28°08' W 015°26'0 0.0
2017-Nov-11 08:13N 28°08' W 015°26'0 0.0
2017-Nov-11 07:58N 28°08' W 015°26'0 0.0
2017-Nov-11 07:13N 28°08' W 015°26'0 0.0
2017-Nov-11 06:46N 28°08' W 015°26'0 0.0
2017-Nov-11 06:25N 28°08' W 015°26'0 0.0
2017-Nov-11 05:13N 28°08' W 015°26'0 0.0
2017-Nov-11 04:31N 28°08' W 015°26'0 0.0
2017-Nov-11 04:16N 28°08' W 015°26'0 0.0
2017-Nov-11 03:49N 28°08' W 015°26'0 0.0
2017-Nov-11 03:16N 28°08' W 015°26'0 0.0
2017-Nov-11 02:49N 28°08' W 015°26'0 0.0
2017-Nov-11 02:19N 28°08' W 015°26'0 0.0
2017-Nov-11 01:37N 28°08' W 015°26'0 0.0
2017-Nov-11 01:22N 28°08' W 015°26'0 0.0
2017-Nov-11 00:49N 28°08' W 015°26'0 0.0
2017-Nov-11 00:22N 28°08' W 015°26'0 0.0
2017-Nov-10 23:52N 28°08' W 015°26'0 0.0
2017-Nov-10 23:25N 28°08' W 015°26'0 0.0
2017-Nov-10 22:37N 28°08' W 015°26'0 0.0
2017-Nov-10 22:25N 28°08' W 015°26'0 0.0
2017-Nov-10 21:40N 28°08' W 015°26'0 0.0
2017-Nov-10 21:28N 28°08' W 015°26'0 0.0
2017-Nov-10 20:40N 28°08' W 015°26'0 0.0
2017-Nov-10 20:28N 28°08' W 015°26'0 0.0
2017-Nov-10 18:58N 28°08' W 015°26'0 0.0
2017-Nov-10 18:28N 28°08' W 015°26'0 0.0
2017-Nov-10 17:55N 28°08' W 015°26'0 0.0
2017-Nov-10 17:28N 28°08' W 015°26'0 0.0
2017-Nov-10 16:58N 28°08' W 015°26'0 0.0
2017-Nov-10 16:01N 28°08' W 015°26'0 0.0
2017-Nov-10 15:49N 28°08' W 015°26'0 0.0
2017-Nov-10 15:19N 28°08' W 015°26'0 0.0
2017-Nov-10 14:16N 28°08' W 015°26'0 0.0
2017-Nov-10 13:49N 28°08' W 015°26'0 0.0
2017-Nov-10 13:16N 28°08' W 015°26'0 0.0
2017-Nov-10 12:49N 28°08' W 015°26'0 0.0
2017-Nov-10 12:22N 28°08' W 015°26'0 0.0
2017-Nov-10 11:04N 28°08' W 015°26'0 0.0
2017-Nov-10 10:25N 28°08' W 015°26'0 0.0
2017-Nov-10 09:55N 28°08' W 015°26'0 0.0
2017-Nov-10 09:25N 28°08' W 015°26'0 0.0
2017-Nov-10 08:40N 28°08' W 015°26'0 0.0
2017-Nov-10 08:28N 28°08' W 015°26'0 0.0
2017-Nov-10 06:40N 28°08' W 015°26'0 0.0
2017-Nov-10 06:25N 28°08' W 015°26'0 0.0
2017-Nov-10 05:55N 28°08' W 015°26'0 0.0
2017-Nov-10 05:28N 28°08' W 015°26'0 0.0
2017-Nov-10 03:49N 28°08' W 015°26'0 0.0
2017-Nov-10 03:19N 28°08' W 015°26'0 0.0
2017-Nov-10 02:49N 28°08' W 015°26'0 0.0
2017-Nov-10 01:34N 28°08' W 015°26'0 0.0
2017-Nov-10 01:22N 28°08' W 015°26'0 0.0
2017-Nov-10 00:52N 28°08' W 015°26'0 0.0
2017-Nov-10 00:19N 28°08' W 015°26'0 0.0
2017-Nov-09 23:52N 28°08' W 015°26'0 0.0
2017-Nov-09 23:22N 28°08' W 015°26'0 0.0
2017-Nov-09 22:55N 28°08' W 015°26'0 0.0
2017-Nov-09 22:25N 28°08' W 015°26'0 0.0
2017-Nov-09 21:55N 28°08' W 015°26'0 0.0
2017-Nov-09 21:07N 28°08' W 015°26'0 0.0
2017-Nov-09 20:56N 28°08' W 015°26'0 0.0
2017-Nov-09 20:25N 28°08' W 015°26'0 0.0
2017-Nov-09 19:55N 28°08' W 015°26'0 0.0
2017-Nov-09 19:25N 28°08' W 015°26'0 0.0
2017-Nov-09 18:59N 28°08' W 015°26'0 0.0
2017-Nov-09 18:28N 28°08' W 015°26'0 0.0
2017-Nov-09 17:56N 28°08' W 015°26'0 0.0
2017-Nov-09 17:17N 28°08' W 015°26'0 0.0
2017-Nov-09 16:44N 28°08' W 015°26'0 0.0
2017-Nov-09 16:17N 28°08' W 015°26'0 0.0
2017-Nov-09 15:47N 28°08' W 015°26'0 0.0
2017-Nov-09 15:17N 28°08' W 015°26'0 0.0
2017-Nov-09 14:59N 28°08' W 015°26'  
Track history (hours):
 
Tides and Currents Weather Stations Pressure Air Temp Water Temp Dewpoint Dewpoint Depression Visibility Wind Speed Wind Dir Waves Ship Positions

Ellen Najad 460

Last reported at 2017-Nov-19 14:52 UTC. Time now 2017-Nov-20 13:45 UTC.
Position N 27°58' W 015°20'.

Length 14 m.

Type: Sailing vessel. MMSI: 265574250.

Date/timePositionNaut miles runAvg speedWind from/ knotsBaromVisibWave heightAir tempDewpointWater temp
2017-Nov-19 14:52N 27°58' W 015°20'2 5.7
2017-Nov-19 14:30N 28°00' W 015°21'2 4.8
2017-Nov-19 14:00N 28°03' W 015°22'3 5.1
2017-Nov-19 13:30N 28°05' W 015°23'2 4.3
2017-Nov-19 12:59N 28°07' W 015°24'1 1.5
2017-Nov-19 12:29N 28°06' W 015°23'1 1.8
2017-Nov-19 11:59N 28°07' W 015°24'2 2.4
2017-Nov-19 11:17N 28°08' W 015°26'0 0.0
2017-Nov-19 10:59N 28°08' W 015°26'0 0.0
2017-Nov-19 10:29N 28°08' W 015°26'0 0.0
2017-Nov-19 09:35N 28°08' W 015°26'0 0.0
2017-Nov-19 08:20N 28°08' W 015°26'0 0.0
2017-Nov-19 06:53N 28°08' W 015°26'0 0.0
2017-Nov-19 06:23N 28°08' W 015°26'0 0.0
2017-Nov-19 05:56N 28°08' W 015°26'0 0.0
2017-Nov-19 05:23N 28°08' W 015°26'0 0.0
2017-Nov-19 04:53N 28°08' W 015°26'0 0.0
2017-Nov-19 04:23N 28°08' W 015°26'0 0.0
2017-Nov-19 03:56N 28°08' W 015°26'0 0.0
2017-Nov-19 03:29N 28°08' W 015°26'0 0.0
2017-Nov-19 02:59N 28°08' W 015°26'0 0.0
2017-Nov-19 02:29N 28°08' W 015°26'0 0.0
2017-Nov-19 01:14N 28°08' W 015°26'0 0.0
2017-Nov-19 00:59N 28°08' W 015°26'0 0.0
2017-Nov-18 20:17N 28°08' W 015°26'0 0.0
2017-Nov-18 19:47N 28°08' W 015°26'0 0.0
2017-Nov-18 19:23N 28°08' W 015°26'0 0.0
2017-Nov-18 17:23N 28°08' W 015°26'0 0.0
2017-Nov-18 14:23N 28°08' W 015°26'0 0.0
2017-Nov-18 13:11N 28°08' W 015°26'0 0.0
2017-Nov-18 12:47N 28°08' W 015°26'0 0.0
2017-Nov-18 12:30N 28°08' W 015°26'0 0.0
2017-Nov-18 11:56N 28°08' W 015°26'0 0.0
2017-Nov-18 11:15N 28°08' W 015°26'0 0.0
2017-Nov-18 10:47N 28°08' W 015°26'0 0.0
2017-Nov-18 10:30N 28°08' W 015°26'0 0.0
2017-Nov-18 09:51N 28°08' W 015°26'0 0.0
2017-Nov-18 09:18N 28°08' W 015°26'0 0.0
2017-Nov-18 08:48N 28°08' W 015°26'0 0.0
2017-Nov-18 08:21N 28°08' W 015°26'0 0.0
2017-Nov-18 07:51N 28°08' W 015°26'0 0.0
2017-Nov-18 07:24N 28°08' W 015°26'0 0.0
2017-Nov-18 06:51N 28°08' W 015°26'0 0.0
2017-Nov-18 06:24N 28°08' W 015°26'0 0.0
2017-Nov-18 05:51N 28°08' W 015°26'0 0.0
2017-Nov-18 05:12N 28°08' W 015°26'0 0.0
2017-Nov-18 04:57N 28°08' W 015°26'0 0.0
2017-Nov-18 04:27N 28°08' W 015°26'0 0.0
2017-Nov-18 03:57N 28°08' W 015°26'0 0.0
2017-Nov-18 03:27N 28°08' W 015°26'0 0.0
2017-Nov-18 02:57N 28°08' W 015°26'0 0.0
2017-Nov-18 02:30N 28°08' W 015°26'0 0.0
2017-Nov-18 02:00N 28°08' W 015°26'0 0.0
2017-Nov-18 01:27N 28°08' W 015°26'0 0.0
2017-Nov-18 01:00N 28°08' W 015°26'0 0.0
2017-Nov-18 00:27N 28°08' W 015°26'0 0.0
2017-Nov-18 00:00N 28°08' W 015°26'0 0.0
2017-Nov-17 23:27N 28°08' W 015°26'0 0.0
2017-Nov-17 22:48N 28°08' W 015°26'0 0.0
2017-Nov-17 22:30N 28°08' W 015°26'0 0.0
2017-Nov-17 22:00N 28°08' W 015°26'0 0.0
2017-Nov-17 21:30N 28°08' W 015°26'0 0.0
2017-Nov-17 20:21N 28°08' W 015°26'0 0.0
2017-Nov-17 19:51N 28°08' W 015°26'0 0.0
2017-Nov-17 19:24N 28°08' W 015°26'0 0.0
2017-Nov-17 18:54N 28°08' W 015°26'0 0.0
2017-Nov-17 18:24N 28°08' W 015°26'0 0.0
2017-Nov-17 17:51N 28°08' W 015°26'0 0.0
2017-Nov-17 17:24N 28°08' W 015°26'0 0.0
2017-Nov-17 16:57N 28°08' W 015°26'0 0.0
2017-Nov-17 16:27N 28°08' W 015°26'0 0.0
2017-Nov-17 15:57N 28°08' W 015°26'0 0.0
2017-Nov-17 15:27N 28°08' W 015°26'0 0.0
2017-Nov-17 14:57N 28°08' W 015°26'0 0.0
2017-Nov-17 14:30N 28°08' W 015°26'0 0.0
2017-Nov-17 14:00N 28°08' W 015°26'0 0.0
2017-Nov-17 13:27N 28°08' W 015°26'0 0.0
2017-Nov-17 13:00N 28°08' W 015°26'0 0.0
2017-Nov-17 12:30N 28°08' W 015°26'0 0.0
2017-Nov-17 12:00N 28°08' W 015°26'0 0.0
2017-Nov-17 11:30N 28°08' W 015°26'0 0.0
2017-Nov-17 11:00N 28°08' W 015°26'0 0.0
2017-Nov-17 10:30N 28°08' W 015°26'0 0.0
2017-Nov-17 09:51N 28°08' W 015°26'0 0.0
2017-Nov-17 09:30N 28°08' W 015°26'0 0.0
2017-Nov-17 08:51N 28°08' W 015°26'0 0.0
2017-Nov-17 08:21N 28°08' W 015°26'0 0.0
2017-Nov-17 07:48N 28°08' W 015°26'0 0.0
2017-Nov-17 07:24N 28°08' W 015°26'0 0.0
2017-Nov-17 06:54N 28°08' W 015°26'0 0.0
2017-Nov-17 06:24N 28°08' W 015°26'0 0.0
2017-Nov-17 05:54N 28°08' W 015°26'0 0.0
2017-Nov-17 05:24N 28°08' W 015°26'0 0.0
2017-Nov-17 04:54N 28°08' W 015°26'0 0.0
2017-Nov-17 04:27N 28°08' W 015°26'0 0.0
2017-Nov-17 03:57N 28°08' W 015°26'0 0.0
2017-Nov-17 03:27N 28°08' W 015°26'0 0.0
2017-Nov-17 02:57N 28°08' W 015°26'0 0.0
2017-Nov-17 02:27N 28°08' W 015°26'0 0.0
2017-Nov-17 02:00N 28°08' W 015°26'0 0.0
2017-Nov-17 01:27N 28°08' W 015°26'0 0.0
2017-Nov-17 01:00N 28°08' W 015°26'0 0.0
2017-Nov-17 00:30N 28°08' W 015°26'0 0.0
2017-Nov-17 00:00N 28°08' W 015°26'0 0.0
2017-Nov-16 23:30N 28°08' W 015°26'0 0.0
2017-Nov-16 23:00N 28°08' W 015°26'0 0.0
2017-Nov-16 22:30N 28°08' W 015°26'0 0.0
2017-Nov-16 21:45N 28°08' W 015°26'0 0.0
2017-Nov-16 21:30N 28°08' W 015°26'0 0.0
2017-Nov-16 21:00N 28°08' W 015°26'0 0.0
2017-Nov-16 20:30N 28°08' W 015°26'0 0.0
2017-Nov-16 19:53N 28°08' W 015°26'0 0.0
2017-Nov-16 19:30N 28°08' W 015°26'0 0.0
2017-Nov-16 19:00N 28°08' W 015°26'0 0.0
2017-Nov-16 18:15N 28°08' W 015°26'0 0.0
2017-Nov-16 17:45N 28°08' W 015°26'0 0.0
2017-Nov-16 17:30N 28°08' W 015°26'0 0.0
2017-Nov-16 17:00N 28°08' W 015°26'0 0.0
2017-Nov-16 16:18N 28°08' W 015°26'0 0.0
2017-Nov-16 15:51N 28°08' W 015°26'0 0.0
2017-Nov-16 15:21N 28°08' W 015°26'0 0.0
2017-Nov-16 14:54N 28°08' W 015°26'0 0.0
2017-Nov-16 14:24N 28°08' W 015°26'0 0.0
2017-Nov-16 13:54N 28°08' W 015°26'0 0.0
2017-Nov-16 13:24N 28°08' W 015°26'0 0.0
2017-Nov-16 12:57N 28°08' W 015°26'0 0.0
2017-Nov-16 12:27N 28°08' W 015°26'0 0.0
2017-Nov-16 11:57N 28°08' W 015°26'0 0.0
2017-Nov-16 11:27N 28°08' W 015°26'0 0.0
2017-Nov-16 10:57N 28°08' W 015°26'0 0.0
2017-Nov-16 10:30N 28°08' W 015°26'0 0.0
2017-Nov-16 10:00N 28°08' W 015°26'0 0.0
2017-Nov-16 09:30N 28°08' W 015°26'0 0.0
2017-Nov-16 09:00N 28°08' W 015°26'0 0.0
2017-Nov-16 08:30N 28°08' W 015°26'0 0.0
2017-Nov-16 08:00N 28°08' W 015°26'0 0.0
2017-Nov-16 07:30N 28°08' W 015°26'0 0.0
2017-Nov-16 07:00N 28°08' W 015°26'0 0.0
2017-Nov-16 06:30N 28°08' W 015°26'0 0.0
2017-Nov-16 06:00N 28°08' W 015°26'0 0.0
2017-Nov-16 05:30N 28°08' W 015°26'0 0.0
2017-Nov-16 05:00N 28°08' W 015°26'0 0.0
2017-Nov-16 04:21N 28°08' W 015°26'0 0.0
2017-Nov-16 03:48N 28°08' W 015°26'0 0.0
2017-Nov-16 03:21N 28°08' W 015°26'0 0.0
2017-Nov-16 02:54N 28°08' W 015°26'0 0.0
2017-Nov-16 02:24N 28°08' W 015°26'0 0.0
2017-Nov-16 01:54N 28°08' W 015°26'0 0.0
2017-Nov-16 01:27N 28°08' W 015°26'0 0.0
2017-Nov-16 00:54N 28°08' W 015°26'0 0.0
2017-Nov-16 00:27N 28°08' W 015°26'0 0.0
2017-Nov-15 23:57N 28°08' W 015°26'0 0.0
2017-Nov-15 23:27N 28°08' W 015°26'0 0.0
2017-Nov-15 22:57N 28°08' W 015°26'0 0.0
2017-Nov-15 22:27N 28°08' W 015°26'0 0.0
2017-Nov-15 21:57N 28°08' W 015°26'0 0.0
2017-Nov-15 21:30N 28°08' W 015°26'0 0.0
2017-Nov-15 20:57N 28°08' W 015°26'0 0.0
2017-Nov-15 20:30N 28°08' W 015°26'0 0.0
2017-Nov-15 20:00N 28°08' W 015°26'0 0.0
2017-Nov-15 19:30N 28°08' W 015°26'0 0.0
2017-Nov-15 19:00N 28°08' W 015°26'0 0.0
2017-Nov-15 18:30N 28°08' W 015°26'0 0.0
2017-Nov-15 18:00N 28°08' W 015°26'0 0.0
2017-Nov-15 17:30N 28°08' W 015°26'0 0.0
2017-Nov-15 16:51N 28°08' W 015°26'0 0.0
2017-Nov-15 16:30N 28°08' W 015°26'0 0.0
2017-Nov-15 15:51N 28°08' W 015°26'0 0.0
2017-Nov-15 15:21N 28°08' W 015°26'0 0.0
2017-Nov-15 14:51N 28°08' W 015°26'0 0.0
2017-Nov-15 14:24N 28°08' W 015°26'0 0.0
2017-Nov-15 13:54N 28°08' W 015°26'0 0.0
2017-Nov-15 13:24N 28°08' W 015°26'0 0.0
2017-Nov-15 12:54N 28°08' W 015°26'0 0.0
2017-Nov-15 12:24N 28°08' W 015°26'0 0.0
2017-Nov-15 11:57N 28°08' W 015°26'0 0.0
2017-Nov-15 11:27N 28°08' W 015°26'0 0.0
2017-Nov-15 10:57N 28°08' W 015°26'0 0.0
2017-Nov-15 10:27N 28°08' W 015°26'0 0.0
2017-Nov-15 09:57N 28°08' W 015°26'0 0.0
2017-Nov-15 09:15N 28°08' W 015°26'0 0.0
2017-Nov-15 09:00N 28°08' W 015°26'0 0.0
2017-Nov-15 08:30N 28°08' W 015°26'0 0.0
2017-Nov-15 07:57N 28°08' W 015°26'0 0.0
2017-Nov-15 07:30N 28°08' W 015°26'0 0.0
2017-Nov-15 07:00N 28°08' W 015°26'0 0.0
2017-Nov-15 06:30N 28°08' W 015°26'0 0.0
2017-Nov-15 06:00N 28°08' W 015°26'0 0.0
2017-Nov-15 05:30N 28°08' W 015°26'0 0.0
2017-Nov-15 05:00N 28°08' W 015°26'0 0.0
2017-Nov-15 04:30N 28°08' W 015°26'0 0.0
2017-Nov-15 04:00N 28°08' W 015°26'0 0.0
2017-Nov-15 03:18N 28°08' W 015°26'0 0.0
2017-Nov-15 02:51N 28°08' W 015°26'0 0.0
2017-Nov-15 02:24N 28°08' W 015°26'0 0.0
2017-Nov-15 01:54N 28°08' W 015°26'0 0.0
2017-Nov-15 01:24N 28°08' W 015°26'0 0.0
2017-Nov-15 00:54N 28°08' W 015°26'0 0.0
2017-Nov-15 00:24N 28°08' W 015°26'0 0.0
2017-Nov-14 23:57N 28°08' W 015°26'0 0.0
2017-Nov-14 23:27N 28°08' W 015°26'0 0.0
2017-Nov-14 22:57N 28°08' W 015°26'0 0.0
2017-Nov-14 22:24N 28°08' W 015°26'0 0.0
2017-Nov-14 21:57N 28°08' W 015°26'0 0.0
2017-Nov-14 21:30N 28°08' W 015°26'0 0.0
2017-Nov-14 21:00N 28°08' W 015°26'0 0.0
2017-Nov-14 20:30N 28°08' W 015°26'0 0.0
2017-Nov-14 20:00N 28°08' W 015°26'0 0.0
2017-Nov-14 19:30N 28°08' W 015°26'0 0.0
2017-Nov-14 19:00N 28°08' W 015°26'0 0.0
2017-Nov-14 18:27N 28°08' W 015°26'0 0.0
2017-Nov-14 18:00N 28°08' W 015°26'0 0.0
2017-Nov-14 17:30N 28°08' W 015°26'0 0.0
2017-Nov-14 17:00N 28°08' W 015°26'0 0.0
2017-Nov-14 16:30N 28°08' W 015°26'0 0.0
2017-Nov-14 15:51N 28°08' W 015°26'0 0.0
2017-Nov-14 15:30N 28°08' W 015°26'0 0.0
2017-Nov-14 14:52N 28°08' W 015°26'0 0.0
2017-Nov-14 14:22N 28°08' W 015°26'0 0.0
2017-Nov-14 13:55N 28°08' W 015°26'0 0.0
2017-Nov-14 13:24N 28°08' W 015°26'0 0.0
2017-Nov-14 12:55N 28°08' W 015°26'0 0.0
2017-Nov-14 12:25N 28°08' W 015°26'0 0.0
2017-Nov-14 11:43N 28°08' W 015°26'0 0.0
2017-Nov-14 11:28N 28°08' W 015°26'0 0.0
2017-Nov-14 10:55N 28°08' W 015°26'0 0.0
2017-Nov-14 10:28N 28°08' W 015°26'0 0.0
2017-Nov-14 09:58N 28°08' W 015°26'0 0.0
2017-Nov-14 09:25N 28°08' W 015°26'0 0.0
2017-Nov-14 08:58N 28°08' W 015°26'0 0.0
2017-Nov-14 08:28N 28°08' W 015°26'0 0.0
2017-Nov-14 07:58N 28°08' W 015°26'0 0.0
2017-Nov-14 07:16N 28°08' W 015°26'0 0.0
2017-Nov-14 06:58N 28°08' W 015°26'0 0.0
2017-Nov-14 06:13N 28°08' W 015°26'0 0.0
2017-Nov-14 05:58N 28°08' W 015°26'0 0.0
2017-Nov-14 05:19N 28°08' W 015°26'0 0.0
2017-Nov-14 04:52N 28°08' W 015°26'0 0.0
2017-Nov-14 04:19N 28°08' W 015°26'0 0.0
2017-Nov-14 03:52N 28°08' W 015°26'0 0.0
2017-Nov-14 03:19N 28°08' W 015°26'0 0.0
2017-Nov-14 02:46N 28°08' W 015°26'0 0.0
2017-Nov-14 02:22N 28°08' W 015°26'0 0.0
2017-Nov-14 01:49N 28°08' W 015°26'0 0.0
2017-Nov-14 01:25N 28°08' W 015°26'0 0.0
2017-Nov-14 00:55N 28°08' W 015°26'0 0.0
2017-Nov-14 00:22N 28°08' W 015°26'0 0.0
2017-Nov-13 23:52N 28°08' W 015°26'0 0.0
2017-Nov-13 23:10N 28°08' W 015°26'0 0.0
2017-Nov-13 22:58N 28°08' W 015°26'0 0.0
2017-Nov-13 22:28N 28°08' W 015°26'0 0.0
2017-Nov-13 21:58N 28°08' W 015°26'0 0.0
2017-Nov-12 20:25N 28°08' W 015°26'0 0.0
2017-Nov-12 17:16N 28°08' W 015°26'0 0.0
2017-Nov-12 16:34N 28°08' W 015°26'0 0.0
2017-Nov-12 16:04N 28°08' W 015°26'0 0.0
2017-Nov-12 15:49N 28°08' W 015°26'0 0.0
2017-Nov-12 15:22N 28°08' W 015°26'0 0.0
2017-Nov-12 14:52N 28°08' W 015°26'0 0.0
2017-Nov-12 14:22N 28°08' W 015°26'0 0.0
2017-Nov-12 13:52N 28°08' W 015°26'0 0.0
2017-Nov-12 13:22N 28°08' W 015°26'0 0.0
2017-Nov-12 12:40N 28°08' W 015°26'0 0.0
2017-Nov-12 12:25N 28°08' W 015°26'0 0.0
2017-Nov-12 11:55N 28°08' W 015°26'0 0.0
2017-Nov-12 11:25N 28°08' W 015°26'0 0.0
2017-Nov-12 10:55N 28°08' W 015°26'0 0.0
2017-Nov-12 10:22N 28°08' W 015°26'0 0.0
2017-Nov-12 08:40N 28°08' W 015°26'0 0.0
2017-Nov-12 08:28N 28°08' W 015°26'0 0.0
2017-Nov-12 07:40N 28°08' W 015°26'0 0.0
2017-Nov-12 07:28N 28°08' W 015°26'0 0.0
2017-Nov-12 06:58N 28°08' W 015°26'0 0.0
2017-Nov-12 06:01N 28°08' W 015°26'0 0.0
2017-Nov-12 05:43N 28°08' W 015°26'0 0.0
2017-Nov-12 05:19N 28°08' W 015°26'0 0.0
2017-Nov-12 04:49N 28°08' W 015°26'0 0.0
2017-Nov-12 04:19N 28°08' W 015°26'0 0.0
2017-Nov-12 02:31N 28°08' W 015°26'0 0.0
2017-Nov-12 02:19N 28°08' W 015°26'0 0.0
2017-Nov-12 00:07N 28°08' W 015°26'0 0.0
2017-Nov-11 23:55N 28°08' W 015°26'0 0.0
2017-Nov-11 23:25N 28°08' W 015°26'0 0.0
2017-Nov-11 22:55N 28°08' W 015°26'0 0.0
2017-Nov-11 22:25N 28°08' W 015°26'0 0.0
2017-Nov-11 18:58N 28°08' W 015°26'0 0.0
2017-Nov-11 18:16N 28°08' W 015°26'0 0.0
2017-Nov-11 17:43N 28°08' W 015°26'0 0.0
2017-Nov-11 17:28N 28°08' W 015°26'0 0.0
2017-Nov-11 16:49N 28°08' W 015°26'0 0.0
2017-Nov-11 16:19N 28°08' W 015°26'0 0.0
2017-Nov-11 15:58N 28°08' W 015°26'0 0.0
2017-Nov-11 15:19N 28°08' W 015°26'0 0.0
2017-Nov-11 14:49N 28°08' W 015°26'0 0.0
2017-Nov-11 14:22N 28°08' W 015°26'0 0.0
2017-Nov-11 13:46N 28°08' W 015°26'0 0.0
2017-Nov-11 13:19N 28°08' W 015°26'0 0.0
2017-Nov-11 12:49N 28°08' W 015°26'0 0.0
2017-Nov-11 12:22N 28°08' W 015°26'0 0.0
2017-Nov-11 11:52N 28°08' W 015°26'0 0.0
2017-Nov-11 11:10N 28°08' W 015°26'0 0.0
2017-Nov-11 10:52N 28°08' W 015°26'0 0.0
2017-Nov-11 10:25N 28°08' W 015°26'0 0.0
2017-Nov-11 08:58N 28°08' W 015°26'0 0.0
2017-Nov-11 08:13N 28°08' W 015°26'0 0.0
2017-Nov-11 07:58N 28°08' W 015°26'0 0.0
2017-Nov-11 07:13N 28°08' W 015°26'0 0.0
2017-Nov-11 06:46N 28°08' W 015°26'0 0.0
2017-Nov-11 06:25N 28°08' W 015°26'0 0.0
2017-Nov-11 05:13N 28°08' W 015°26'0 0.0
2017-Nov-11 04:31N 28°08' W 015°26'0 0.0
2017-Nov-11 04:16N 28°08' W 015°26'0 0.0
2017-Nov-11 03:49N 28°08' W 015°26'0 0.0
2017-Nov-11 03:16N 28°08' W 015°26'0 0.0
2017-Nov-11 02:49N 28°08' W 015°26'0 0.0
2017-Nov-11 02:19N 28°08' W 015°26'0 0.0
2017-Nov-11 01:37N 28°08' W 015°26'0 0.0
2017-Nov-11 01:22N 28°08' W 015°26'0 0.0
2017-Nov-11 00:49N 28°08' W 015°26'0 0.0
2017-Nov-11 00:22N 28°08' W 015°26'0 0.0
2017-Nov-10 23:52N 28°08' W 015°26'0 0.0
2017-Nov-10 23:25N 28°08' W 015°26'0 0.0
2017-Nov-10 22:37N 28°08' W 015°26'0 0.0
2017-Nov-10 22:25N 28°08' W 015°26'0 0.0
2017-Nov-10 21:40N 28°08' W 015°26'0 0.0
2017-Nov-10 21:28N 28°08' W 015°26'0 0.0
2017-Nov-10 20:40N 28°08' W 015°26'0 0.0
2017-Nov-10 20:28N 28°08' W 015°26'0 0.0
2017-Nov-10 18:58N 28°08' W 015°26'0 0.0
2017-Nov-10 18:28N 28°08' W 015°26'0 0.0
2017-Nov-10 17:55N 28°08' W 015°26'0 0.0
2017-Nov-10 17:28N 28°08' W 015°26'0 0.0
2017-Nov-10 16:58N 28°08' W 015°26'0 0.0
2017-Nov-10 16:01N 28°08' W 015°26'0 0.0
2017-Nov-10 15:49N 28°08' W 015°26'0 0.0
2017-Nov-10 15:19N 28°08' W 015°26'0 0.0
2017-Nov-10 14:16N 28°08' W 015°26'0 0.0
2017-Nov-10 13:49N 28°08' W 015°26'0 0.0
2017-Nov-10 13:16N 28°08' W 015°26'0 0.0
2017-Nov-10 12:49N 28°08' W 015°26'0 0.0
2017-Nov-10 12:22N 28°08' W 015°26'0 0.0
2017-Nov-10 11:04N 28°08' W 015°26'0 0.0
2017-Nov-10 10:25N 28°08' W 015°26'0 0.0
2017-Nov-10 09:55N 28°08' W 015°26'0 0.0
2017-Nov-10 09:25N 28°08' W 015°26'0 0.0
2017-Nov-10 08:40N 28°08' W 015°26'0 0.0
2017-Nov-10 08:28N 28°08' W 015°26'0 0.0
2017-Nov-10 06:40N 28°08' W 015°26'0 0.0
2017-Nov-10 06:25N 28°08' W 015°26'0 0.0
2017-Nov-10 05:55N 28°08' W 015°26'0 0.0
2017-Nov-10 05:28N 28°08' W 015°26'0 0.0
2017-Nov-10 03:49N 28°08' W 015°26'0 0.0
2017-Nov-10 03:19N 28°08' W 015°26'0 0.0
2017-Nov-10 02:49N 28°08' W 015°26'0 0.0
2017-Nov-10 01:34N 28°08' W 015°26'0 0.0
2017-Nov-10 01:22N 28°08' W 015°26'0 0.0
2017-Nov-10 00:52N 28°08' W 015°26'0 0.0
2017-Nov-10 00:19N 28°08' W 015°26'0 0.0
2017-Nov-09 23:52N 28°08' W 015°26'0 0.0
2017-Nov-09 23:22N 28°08' W 015°26'0 0.0
2017-Nov-09 22:55N 28°08' W 015°26'0 0.0
2017-Nov-09 22:25N 28°08' W 015°26'0 0.0
2017-Nov-09 21:55N 28°08' W 015°26'0 0.0
2017-Nov-09 21:07N 28°08' W 015°26'0 0.0
2017-Nov-09 20:56N 28°08' W 015°26'0 0.0
2017-Nov-09 20:25N 28°08' W 015°26'0 0.0
2017-Nov-09 19:55N 28°08' W 015°26'0 0.0
2017-Nov-09 19:25N 28°08' W 015°26'0 0.0
2017-Nov-09 18:59N 28°08' W 015°26'0 0.0
2017-Nov-09 18:28N 28°08' W 015°26'0 0.0
2017-Nov-09 17:56N 28°08' W 015°26'0 0.0
2017-Nov-09 17:17N 28°08' W 015°26'0 0.0
2017-Nov-09 16:44N 28°08' W 015°26'0 0.0
2017-Nov-09 16:17N 28°08' W 015°26'0 0.0
2017-Nov-09 15:47N 28°08' W 015°26'0 0.0
2017-Nov-09 15:17N 28°08' W 015°26'0 0.0
2017-Nov-09 14:59N 28°08' W 015°26'  

Dump ship's entire track history